Kurahashi — JD2319 — position and weather

sailwx.info

Track history (hours):
 
Tides and Currents Weather Stations Pressure Air Temp Water Temp Dewpoint Dewpoint Depression Visibility Wind Speed Wind Dir Waves Ship Positions

Kurahashi

Last reported at 2017-Sep-21 02:56 UTC. Time now 2017-Sep-23 07:29 UTC.
Position N 34°37' E 134°58'.

Length 73 m; draft 4.1 m.

Type: Ship (hazmat cat C). MMSI: 431402059.

Date/timePositionNaut miles runAvg speedWind from/ knotsBaromVisibWave heightAir tempDewpointWater temp
2017-Sep-21 02:56N 34°37' E 134°58'511.5
2017-Sep-21 02:30N 34°36' E 135°03'612.9
2017-Sep-21 02:00N 34°36' E 135°11'612.8
2017-Sep-21 01:30N 34°33' E 135°18'5 1.8
2017-Sep-20 22:46N 34°31' E 135°23'1 0.2
2017-Sep-20 19:57N 34°31' E 135°24'0 0.0
2017-Sep-20 19:29N 34°31' E 135°24'0 0.0
2017-Sep-20 18:59N 34°31' E 135°24'0 0.0
2017-Sep-20 18:25N 34°31' E 135°24'0 0.0
2017-Sep-20 18:00N 34°31' E 135°24'0 0.0
2017-Sep-20 17:30N 34°31' E 135°24'0 0.0
2017-Sep-20 17:00N 34°31' E 135°24'0 0.0
2017-Sep-20 16:30N 34°31' E 135°24'0 0.0
2017-Sep-20 16:00N 34°31' E 135°24'0 0.0
2017-Sep-20 15:30N 34°31' E 135°24'0 0.0
2017-Sep-20 15:00N 34°31' E 135°24'0 0.0
2017-Sep-20 13:56N 34°31' E 135°24'0 0.0
2017-Sep-20 13:25N 34°31' E 135°24'0 0.0
2017-Sep-20 13:00N 34°31' E 135°24'0 0.0
2017-Sep-20 12:26N 34°31' E 135°24'0 0.0
2017-Sep-20 12:00N 34°31' E 135°24'0 0.0
2017-Sep-20 11:28N 34°31' E 135°24'0 0.0
2017-Sep-20 10:57N 34°31' E 135°24'0 0.0
2017-Sep-20 10:25N 34°31' E 135°24'0 0.0
2017-Sep-20 07:25N 34°31' E 135°24'0 0.0
2017-Sep-20 05:47N 34°31' E 135°24'0 0.0
2017-Sep-20 05:27N 34°31' E 135°24'0 0.0
2017-Sep-20 03:22N 34°31' E 135°24'0 0.0
2017-Sep-20 01:06N 34°31' E 135°24'0 0.0
2017-Sep-19 22:55N 34°31' E 135°24'2 4.9
2017-Sep-19 22:30N 34°32' E 135°22'0 0.0
2017-Sep-19 21:59N 34°32' E 135°22'0 0.0
2017-Sep-19 21:27N 34°32' E 135°22'0 0.0
2017-Sep-19 19:44N 34°32' E 135°22'0 0.0
2017-Sep-19 19:29N 34°32' E 135°22'1 1.9
2017-Sep-19 18:59N 34°32' E 135°21'510.6
2017-Sep-19 18:30N 34°29' E 135°16'510.5
2017-Sep-19 18:00N 34°26' E 135°11'5 9.9
2017-Sep-19 17:30N 34°23' E 135°06'7 9.6
2017-Sep-19 16:44N 34°18' E 134°60'11 9.9
2017-Sep-19 15:39N 34°07' E 135°01'  
Track history (hours):
 
Tides and Currents Weather Stations Pressure Air Temp Water Temp Dewpoint Dewpoint Depression Visibility Wind Speed Wind Dir Waves Ship Positions

Kurahashi

Last reported at 2017-Sep-21 02:56 UTC. Time now 2017-Sep-23 07:29 UTC.
Position N 34°37' E 134°58'.

Length 73 m; draft 4.1 m.

Type: Ship (hazmat cat C). MMSI: 431402059.

Date/timePositionNaut miles runAvg speedWind from/ knotsBaromVisibWave heightAir tempDewpointWater temp
2017-Sep-21 02:56N 34°37' E 134°58'511.5
2017-Sep-21 02:30N 34°36' E 135°03'612.9
2017-Sep-21 02:00N 34°36' E 135°11'612.8
2017-Sep-21 01:30N 34°33' E 135°18'5 1.8
2017-Sep-20 22:46N 34°31' E 135°23'1 0.2
2017-Sep-20 19:57N 34°31' E 135°24'0 0.0
2017-Sep-20 19:29N 34°31' E 135°24'0 0.0
2017-Sep-20 18:59N 34°31' E 135°24'0 0.0
2017-Sep-20 18:25N 34°31' E 135°24'0 0.0
2017-Sep-20 18:00N 34°31' E 135°24'0 0.0
2017-Sep-20 17:30N 34°31' E 135°24'0 0.0
2017-Sep-20 17:00N 34°31' E 135°24'0 0.0
2017-Sep-20 16:30N 34°31' E 135°24'0 0.0
2017-Sep-20 16:00N 34°31' E 135°24'0 0.0
2017-Sep-20 15:30N 34°31' E 135°24'0 0.0
2017-Sep-20 15:00N 34°31' E 135°24'0 0.0
2017-Sep-20 13:56N 34°31' E 135°24'0 0.0
2017-Sep-20 13:25N 34°31' E 135°24'0 0.0
2017-Sep-20 13:00N 34°31' E 135°24'0 0.0
2017-Sep-20 12:26N 34°31' E 135°24'0 0.0
2017-Sep-20 12:00N 34°31' E 135°24'0 0.0
2017-Sep-20 11:28N 34°31' E 135°24'0 0.0
2017-Sep-20 10:57N 34°31' E 135°24'0 0.0
2017-Sep-20 10:25N 34°31' E 135°24'0 0.0
2017-Sep-20 07:25N 34°31' E 135°24'0 0.0
2017-Sep-20 05:47N 34°31' E 135°24'0 0.0
2017-Sep-20 05:27N 34°31' E 135°24'0 0.0
2017-Sep-20 03:22N 34°31' E 135°24'0 0.0
2017-Sep-20 01:06N 34°31' E 135°24'0 0.0
2017-Sep-19 22:55N 34°31' E 135°24'2 4.9
2017-Sep-19 22:30N 34°32' E 135°22'0 0.0
2017-Sep-19 21:59N 34°32' E 135°22'0 0.0
2017-Sep-19 21:27N 34°32' E 135°22'0 0.0
2017-Sep-19 19:44N 34°32' E 135°22'0 0.0
2017-Sep-19 19:29N 34°32' E 135°22'1 1.9
2017-Sep-19 18:59N 34°32' E 135°21'510.6
2017-Sep-19 18:30N 34°29' E 135°16'510.5
2017-Sep-19 18:00N 34°26' E 135°11'5 9.9
2017-Sep-19 17:30N 34°23' E 135°06'7 9.6
2017-Sep-19 16:44N 34°18' E 134°60'11 9.9
2017-Sep-19 15:39N 34°07' E 135°01'  

Dump ship's entire track history